createdAt,value
2018-09-22T00:00:55.461Z,1008.64
2018-09-22T00:01:55.461Z,1008.57
2018-09-22T00:02:55.456Z,1008.66
2018-09-22T00:03:55.452Z,1008.58
2018-09-22T00:04:55.451Z,1008.54
2018-09-22T00:05:56.398Z,1008.61
2018-09-22T00:06:55.443Z,1008.60
2018-09-22T00:07:55.453Z,1008.60
2018-09-22T00:08:55.437Z,1008.60
2018-09-22T00:09:55.435Z,1008.62
2018-09-22T00:10:55.435Z,1008.62
2018-09-22T00:11:55.429Z,1008.70
2018-09-22T00:12:55.427Z,1008.69
2018-09-22T00:13:55.421Z,1008.73
2018-09-22T00:14:55.421Z,1008.70
2018-09-22T00:15:55.417Z,1008.71
2018-09-22T00:16:55.416Z,1008.76
2018-09-22T00:17:55.409Z,1008.73
2018-09-22T00:18:55.406Z,1008.79
2018-09-22T00:19:55.403Z,1008.84
2018-09-22T00:20:55.400Z,1008.83
2018-09-22T00:21:55.411Z,1008.86
2018-09-22T00:22:55.392Z,1008.84
2018-09-22T00:23:55.394Z,1008.86
2018-09-22T00:24:55.388Z,1008.82
2018-09-22T00:25:55.383Z,1008.81
2018-09-22T00:26:55.385Z,1008.80
2018-09-22T00:27:55.380Z,1008.84
2018-09-22T00:28:55.375Z,1008.82
2018-09-22T00:29:55.373Z,1008.80
2018-09-22T00:30:55.370Z,1008.85
2018-09-22T00:31:55.367Z,1008.88
2018-09-22T00:32:55.363Z,1008.92
2018-09-22T00:33:55.362Z,1008.88
2018-09-22T00:34:55.358Z,1008.93
2018-09-22T00:35:55.354Z,1008.91
2018-09-22T00:36:55.352Z,1008.97
2018-09-22T00:37:55.350Z,1008.89
2018-09-22T00:38:55.345Z,1008.93
2018-09-22T00:39:55.342Z,1008.98
2018-09-22T00:40:55.341Z,1008.95
2018-09-22T00:41:55.336Z,1008.95
2018-09-22T00:42:55.409Z,1008.98
2018-09-22T00:43:55.332Z,1008.99
2018-09-22T00:44:55.326Z,1009.04
2018-09-22T00:45:55.324Z,1009.06
2018-09-22T00:46:55.322Z,1009.05
2018-09-22T00:47:55.317Z,1009.08
2018-09-22T00:48:55.315Z,1009.12
2018-09-22T00:49:55.312Z,1009.10
2018-09-22T00:50:55.311Z,1009.07
2018-09-22T00:51:55.306Z,1009.14
2018-09-22T00:52:55.302Z,1009.15
2018-09-22T00:53:55.299Z,1009.18
2018-09-22T00:54:55.296Z,1009.19
2018-09-22T00:55:55.293Z,1009.25
2018-09-22T00:56:55.289Z,1009.23
2018-09-22T00:57:55.292Z,1009.25
2018-09-22T00:58:55.286Z,1009.25
2018-09-22T00:59:55.282Z,1009.19
2018-09-22T01:00:55.277Z,1009.28
2018-09-22T01:01:55.279Z,1009.26
2018-09-22T01:02:55.272Z,1009.27
2018-09-22T01:03:55.271Z,1009.28
2018-09-22T01:04:55.268Z,1009.26
2018-09-22T01:05:55.263Z,1009.23
2018-09-22T01:06:55.260Z,1009.26
2018-09-22T01:07:55.260Z,1009.21
2018-09-22T01:08:55.253Z,1009.19
2018-09-22T01:09:55.251Z,1009.23
2018-09-22T01:10:55.248Z,1009.24
2018-09-22T01:11:55.248Z,1009.24
2018-09-22T01:12:55.240Z,1009.25
2018-09-22T01:13:55.237Z,1009.28
2018-09-22T01:14:55.236Z,1009.20
2018-09-22T01:15:55.255Z,1009.28
2018-09-22T01:16:55.227Z,1009.25
2018-09-22T01:17:55.229Z,1009.21
2018-09-22T01:18:55.223Z,1009.21
2018-09-22T01:19:55.220Z,1009.21
2018-09-22T01:20:55.217Z,1009.21
2018-09-22T01:21:55.214Z,1009.26
2018-09-22T01:22:55.211Z,1009.26
2018-09-22T01:23:55.206Z,1009.27
2018-09-22T01:24:55.207Z,1009.32
2018-09-22T01:25:55.198Z,1009.26
2018-09-22T01:26:55.198Z,1009.25
2018-09-22T01:27:55.194Z,1009.36
2018-09-22T01:28:55.189Z,1009.35
2018-09-22T01:29:55.187Z,1009.39
2018-09-22T01:30:55.183Z,1009.35
2018-09-22T01:31:55.181Z,1009.40
2018-09-22T01:32:55.178Z,1009.40
2018-09-22T01:33:55.177Z,1009.44
2018-09-22T01:34:55.170Z,1009.40
2018-09-22T01:35:55.164Z,1009.39
2018-09-22T01:36:55.164Z,1009.39
2018-09-22T01:37:55.160Z,1009.42
2018-09-22T01:38:55.159Z,1009.45
2018-09-22T01:39:55.154Z,1009.41
2018-09-22T01:40:55.153Z,1009.41
2018-09-22T01:41:55.147Z,1009.43
2018-09-22T01:42:55.144Z,1009.44
2018-09-22T01:43:55.141Z,1009.44
2018-09-22T01:44:55.140Z,1009.46
2018-09-22T01:45:55.135Z,1009.37
2018-09-22T01:46:55.130Z,1009.50
2018-09-22T01:47:55.126Z,1009.45
2018-09-22T01:48:55.125Z,1009.49
2018-09-22T01:49:55.118Z,1009.49
2018-09-22T01:50:55.118Z,1009.52
2018-09-22T01:51:55.115Z,1009.53
2018-09-22T01:52:55.113Z,1009.49
2018-09-22T01:53:55.107Z,1009.55
2018-09-22T01:54:55.107Z,1009.60
2018-09-22T01:55:55.101Z,1009.61
2018-09-22T01:56:55.097Z,1009.62
2018-09-22T01:57:55.092Z,1009.63
2018-09-22T01:58:55.089Z,1009.64
2018-09-22T01:59:55.087Z,1009.70
2018-09-22T02:00:55.079Z,1009.68
2018-09-22T02:01:55.082Z,1009.63
2018-09-22T02:02:55.077Z,1009.68
2018-09-22T02:03:55.070Z,1009.69
2018-09-22T02:04:55.070Z,1009.72
2018-09-22T02:05:55.065Z,1009.71
2018-09-22T02:06:55.059Z,1009.71
2018-09-22T02:07:55.058Z,1009.71
2018-09-22T02:08:55.055Z,1009.72
2018-09-22T02:09:55.096Z,1009.76
2018-09-22T02:10:55.047Z,1009.81
2018-09-22T02:11:55.043Z,1009.78
2018-09-22T02:12:55.040Z,1009.77
2018-09-22T02:13:55.038Z,1009.74
2018-09-22T02:14:55.047Z,1009.78
2018-09-22T02:15:55.031Z,1009.71
2018-09-22T02:16:55.022Z,1009.73
2018-09-22T02:17:55.023Z,1009.78
2018-09-22T02:18:55.020Z,1009.68
2018-09-22T02:19:55.015Z,1009.73
2018-09-22T02:20:55.020Z,1009.72
2018-09-22T02:21:55.003Z,1009.75
2018-09-22T02:22:55.006Z,1009.76
2018-09-22T02:23:55.002Z,1009.81
2018-09-22T02:24:54.996Z,1009.75
2018-09-22T02:25:55.859Z,1009.80
2018-09-22T02:26:54.988Z,1009.80
2018-09-22T02:27:54.988Z,1009.80
2018-09-22T02:28:54.983Z,1009.72
2018-09-22T02:29:54.977Z,1009.80
2018-09-22T02:30:54.977Z,1009.78
2018-09-22T02:31:54.972Z,1009.81
2018-09-22T02:32:54.969Z,1009.79
2018-09-22T02:33:54.964Z,1009.75
2018-09-22T02:34:54.962Z,1009.79
2018-09-22T02:35:54.959Z,1009.76
2018-09-22T02:36:54.954Z,1009.77
2018-09-22T02:37:54.949Z,1009.79
2018-09-22T02:38:54.947Z,1009.84
2018-09-22T02:39:54.942Z,1009.79
2018-09-22T02:40:54.940Z,1009.75
2018-09-22T02:41:54.938Z,1009.75
2018-09-22T02:42:54.936Z,1009.80
2018-09-22T02:43:54.932Z,1009.78
2018-09-22T02:44:54.924Z,1009.76
2018-09-22T02:45:54.923Z,1009.75
2018-09-22T02:46:54.917Z,1009.76
2018-09-22T02:47:54.914Z,1009.74
2018-09-22T02:48:54.911Z,1009.71
2018-09-22T02:49:54.908Z,1009.76
2018-09-22T02:50:54.903Z,1009.74
2018-09-22T02:51:54.967Z,1009.75
2018-09-22T02:52:54.895Z,1009.74
2018-09-22T02:53:54.893Z,1009.73
2018-09-22T02:54:54.890Z,1009.77
2018-09-22T02:55:54.890Z,1009.77
2018-09-22T02:56:54.880Z,1009.79
2018-09-22T02:57:54.877Z,1009.80
2018-09-22T02:58:54.873Z,1009.78
2018-09-22T02:59:54.871Z,1009.72
2018-09-22T03:00:54.868Z,1009.79
2018-09-22T03:01:54.862Z,1009.82
2018-09-22T03:02:55.372Z,1009.80
2018-09-22T03:03:55.371Z,1009.80
2018-09-22T03:04:54.854Z,1009.79
2018-09-22T03:05:54.848Z,1009.83
2018-09-22T03:06:54.843Z,1009.86
2018-09-22T03:07:54.841Z,1009.86
2018-09-22T03:08:54.909Z,1009.85
2018-09-22T03:09:54.835Z,1009.91
2018-09-22T03:10:54.829Z,1009.88
2018-09-22T03:11:54.829Z,1009.93
2018-09-22T03:12:54.823Z,1009.88
2018-09-22T03:13:54.819Z,1009.89
2018-09-22T03:14:54.817Z,1009.92
2018-09-22T03:15:54.811Z,1009.92
2018-09-22T03:16:54.806Z,1009.93
2018-09-22T03:17:54.803Z,1009.91
2018-09-22T03:18:54.801Z,1009.88
2018-09-22T03:19:54.796Z,1009.90
2018-09-22T03:20:54.790Z,1009.90
2018-09-22T03:21:54.803Z,1009.90
2018-09-22T03:22:54.837Z,1009.94
2018-09-22T03:23:54.779Z,1009.89
2018-09-22T03:24:54.777Z,1009.90
2018-09-22T03:25:54.775Z,1009.92
2018-09-22T03:26:54.769Z,1009.89
2018-09-22T03:27:54.767Z,1009.89
2018-09-22T03:28:54.758Z,1009.92
2018-09-22T03:29:54.769Z,1009.94
2018-09-22T03:30:54.761Z,1009.97
2018-09-22T03:31:54.751Z,1009.94
2018-09-22T03:32:54.748Z,1009.96
2018-09-22T03:33:54.743Z,1009.99
2018-09-22T03:34:54.747Z,1010.01
2018-09-22T03:35:54.734Z,1010.02
2018-09-22T03:36:54.732Z,1009.99
2018-09-22T03:37:54.729Z,1010.03
2018-09-22T03:38:54.726Z,1010.06
2018-09-22T03:39:54.728Z,1010.07
2018-09-22T03:40:54.718Z,1010.05
2018-09-22T03:41:54.714Z,1010.02
2018-09-22T03:42:54.708Z,1010.05
2018-09-22T03:43:54.706Z,1010.03
2018-09-22T03:44:54.700Z,1010.07
2018-09-22T03:45:54.701Z,1010.08
2018-09-22T03:46:54.694Z,1010.02
2018-09-22T03:47:54.690Z,1010.05
2018-09-22T03:48:54.693Z,1010.06
2018-09-22T03:49:54.681Z,1010.05
2018-09-22T03:50:54.679Z,1010.01
2018-09-22T03:51:54.675Z,1010.04
2018-09-22T03:52:54.673Z,1010.02
2018-09-22T03:53:54.668Z,1010.06
2018-09-22T03:54:54.665Z,1010.13
2018-09-22T03:55:54.663Z,1010.11
2018-09-22T03:56:54.654Z,1010.09
2018-09-22T03:57:54.652Z,1010.09
2018-09-22T03:58:55.386Z,1010.13
2018-09-22T03:59:54.646Z,1010.15
2018-09-22T04:00:54.640Z,1010.15
2018-09-22T04:01:54.640Z,1010.11
2018-09-22T04:02:54.633Z,1010.11
2018-09-22T04:03:54.631Z,1010.08
2018-09-22T04:04:54.634Z,1010.10
2018-09-22T04:05:54.623Z,1010.08
2018-09-22T04:06:54.619Z,1010.08
2018-09-22T04:07:54.615Z,1010.09
2018-09-22T04:08:54.613Z,1010.09
2018-09-22T04:09:54.607Z,1010.11
2018-09-22T04:10:54.602Z,1010.11
2018-09-22T04:11:54.599Z,1010.11
2018-09-22T04:12:54.596Z,1010.16
2018-09-22T04:13:54.594Z,1010.15
2018-09-22T04:14:54.588Z,1010.21
2018-09-22T04:15:54.582Z,1010.21
2018-09-22T04:16:54.580Z,1010.16
2018-09-22T04:17:54.576Z,1010.18
2018-09-22T04:18:54.572Z,1010.20
2018-09-22T04:19:54.568Z,1010.27
2018-09-22T04:20:54.564Z,1010.28
2018-09-22T04:21:54.560Z,1010.21
2018-09-22T04:22:54.556Z,1010.30
2018-09-22T04:23:54.566Z,1010.30
2018-09-22T04:24:54.557Z,1010.35
2018-09-22T04:25:54.548Z,1010.34
2018-09-22T04:26:54.541Z,1010.35
2018-09-22T04:27:54.537Z,1010.42
2018-09-22T04:28:54.533Z,1010.40
2018-09-22T04:29:54.532Z,1010.39
2018-09-22T04:30:54.528Z,1010.39
2018-09-22T04:31:54.525Z,1010.41
2018-09-22T04:32:54.517Z,1010.46
2018-09-22T04:33:54.515Z,1010.52
2018-09-22T04:34:54.512Z,1010.45
2018-09-22T04:35:54.512Z,1010.46
2018-09-22T04:36:54.502Z,1010.46
2018-09-22T04:37:54.498Z,1010.44
2018-09-22T04:38:54.499Z,1010.43
2018-09-22T04:39:54.498Z,1010.39
2018-09-22T04:40:54.484Z,1010.41
2018-09-22T04:41:54.482Z,1010.41
2018-09-22T04:42:54.479Z,1010.48
2018-09-22T04:43:54.473Z,1010.53
2018-09-22T04:44:54.471Z,1010.48
2018-09-22T04:45:54.467Z,1010.46
2018-09-22T04:46:54.469Z,1010.44
2018-09-22T04:47:54.457Z,1010.44
2018-09-22T04:48:54.453Z,1010.48
2018-09-22T04:49:54.451Z,1010.52
2018-09-22T04:50:54.445Z,1010.46
2018-09-22T04:51:54.444Z,1010.51
2018-09-22T04:52:54.439Z,1010.56
2018-09-22T04:53:54.433Z,1010.61
2018-09-22T04:54:54.432Z,1010.59
2018-09-22T04:55:54.432Z,1010.58
2018-09-22T04:56:54.425Z,1010.62
2018-09-22T04:57:54.422Z,1010.66
2018-09-22T04:58:54.417Z,1010.76
2018-09-22T04:59:54.412Z,1010.72
2018-09-22T05:00:54.410Z,1010.75
2018-09-22T05:01:54.404Z,1010.76
2018-09-22T05:02:54.401Z,1010.80
2018-09-22T05:03:54.396Z,1010.80
2018-09-22T05:04:54.397Z,1010.89
2018-09-22T05:05:54.393Z,1010.81
2018-09-22T05:06:54.391Z,1010.84
2018-09-22T05:07:54.381Z,1010.88
2018-09-22T05:08:54.379Z,1010.89
2018-09-22T05:09:54.392Z,1010.93
2018-09-22T05:10:54.371Z,1011.00
2018-09-22T05:11:54.371Z,1011.01
2018-09-22T05:12:54.362Z,1011.04
2018-09-22T05:13:54.360Z,1011.07
2018-09-22T05:14:54.358Z,1011.05
2018-09-22T05:15:54.351Z,1011.07
2018-09-22T05:16:54.350Z,1011.10
2018-09-22T05:17:54.349Z,1011.14
2018-09-22T05:18:54.346Z,1011.15
2018-09-22T05:19:54.337Z,1011.22
2018-09-22T05:20:54.334Z,1011.27
2018-09-22T05:21:54.332Z,1011.05
2018-09-22T05:22:54.326Z,1011.15
2018-09-22T05:23:54.323Z,1011.16
2018-09-22T05:24:54.365Z,1011.14
2018-09-22T05:25:54.319Z,1011.12
2018-09-22T05:26:54.314Z,1011.15
2018-09-22T05:27:54.309Z,1011.22
2018-09-22T05:28:54.304Z,1011.25
2018-09-22T05:29:54.301Z,1011.25
2018-09-22T05:30:54.297Z,1011.26
2018-09-22T05:31:54.298Z,1011.28
2018-09-22T05:32:54.288Z,1011.19
2018-09-22T05:33:54.287Z,1011.24
2018-09-22T05:34:54.281Z,1011.28
2018-09-22T05:35:54.276Z,1011.27
2018-09-22T05:36:54.270Z,1011.27
2018-09-22T05:37:54.271Z,1011.28
2018-09-22T05:38:54.267Z,1011.29
2018-09-22T05:39:54.266Z,1011.30
2018-09-22T05:40:54.265Z,1011.30
2018-09-22T05:41:54.258Z,1011.36
2018-09-22T05:42:54.251Z,1011.35
2018-09-22T05:43:54.251Z,1011.35
2018-09-22T05:44:54.245Z,1011.33
2018-09-22T05:45:54.241Z,1011.34
2018-09-22T05:46:54.238Z,1011.33
2018-09-22T05:47:54.234Z,1011.39
2018-09-22T05:48:54.230Z,1011.42
2018-09-22T05:49:54.226Z,1011.42
2018-09-22T05:50:54.222Z,1011.45
2018-09-22T05:51:54.222Z,1011.48
2018-09-22T05:52:54.215Z,1011.50
2018-09-22T05:53:54.244Z,1011.55
2018-09-22T05:54:54.207Z,1011.58
2018-09-22T05:55:54.203Z,1011.55
2018-09-22T05:56:54.214Z,1011.60
2018-09-22T05:57:54.220Z,1011.62
2018-09-22T05:58:54.198Z,1011.60
2018-09-22T05:59:54.190Z,1011.61
2018-09-22T06:00:54.186Z,1011.66
2018-09-22T06:01:54.182Z,1011.64
2018-09-22T06:02:54.180Z,1011.70
2018-09-22T06:03:54.307Z,1011.75
2018-09-22T06:04:54.175Z,1011.72
2018-09-22T06:05:54.168Z,1011.70
2018-09-22T06:06:54.167Z,1011.73
2018-09-22T06:07:54.162Z,1011.77
2018-09-22T06:08:54.158Z,1011.80
2018-09-22T06:09:54.156Z,1011.81
2018-09-22T06:10:54.151Z,1011.87
2018-09-22T06:11:54.151Z,1011.88
2018-09-22T06:12:54.143Z,1011.91
2018-09-22T06:13:54.155Z,1011.90
2018-09-22T06:14:54.137Z,1011.92
2018-09-22T06:15:54.133Z,1011.92
2018-09-22T06:16:54.137Z,1011.98
2018-09-22T06:17:54.129Z,1011.92
2018-09-22T06:18:54.122Z,1011.97
2018-09-22T06:19:54.122Z,1011.96
2018-09-22T06:20:54.120Z,1011.96
2018-09-22T06:21:54.118Z,1011.92
2018-09-22T06:22:54.161Z,1011.94
2018-09-22T06:23:54.111Z,1012.01
2018-09-22T06:24:54.095Z,1011.98
2018-09-22T06:25:54.095Z,1012.04
2018-09-22T06:26:54.102Z,1012.03
2018-09-22T06:27:54.106Z,1012.01
2018-09-22T06:28:54.152Z,1012.07
2018-09-22T06:29:54.078Z,1012.07
2018-09-22T06:30:54.080Z,1012.14
2018-09-22T06:31:54.074Z,1012.16
2018-09-22T06:32:54.071Z,1012.23
2018-09-22T06:33:54.066Z,1012.20
2018-09-22T06:34:54.062Z,1012.21
2018-09-22T06:35:54.061Z,1012.18
2018-09-22T06:36:54.057Z,1012.19
2018-09-22T06:37:54.055Z,1012.21
2018-09-22T06:38:54.111Z,1012.27
2018-09-22T06:39:54.051Z,1012.30
2018-09-22T06:40:54.044Z,1012.28
2018-09-22T06:41:54.042Z,1012.30
2018-09-22T06:42:54.039Z,1012.31
2018-09-22T06:43:54.035Z,1012.35
2018-09-22T06:44:54.032Z,1012.30
2018-09-22T06:45:54.029Z,1012.33
2018-09-22T06:46:54.065Z,1012.40
2018-09-22T06:47:54.024Z,1012.37
2018-09-22T06:48:54.020Z,1012.31
2018-09-22T06:49:54.017Z,1012.30
2018-09-22T06:50:54.015Z,1012.28
2018-09-22T06:51:54.923Z,1012.32
2018-09-22T06:52:54.007Z,1012.35
2018-09-22T06:53:54.006Z,1012.38
2018-09-22T06:54:54.038Z,1012.33
2018-09-22T06:55:54.000Z,1012.39
2018-09-22T06:56:53.997Z,1012.36
2018-09-22T06:57:53.994Z,1012.38
2018-09-22T06:58:53.990Z,1012.42
2018-09-22T06:59:53.990Z,1012.37
2018-09-22T07:00:53.986Z,1012.40
2018-09-22T07:01:53.983Z,1012.47
2018-09-22T07:02:53.985Z,1012.45
2018-09-22T07:03:53.978Z,1012.47
2018-09-22T07:04:53.976Z,1012.50
2018-09-22T07:05:53.975Z,1012.47
2018-09-22T07:06:53.975Z,1012.50
2018-09-22T07:07:53.968Z,1012.54
2018-09-22T07:08:53.966Z,1012.55
2018-09-22T07:09:53.965Z,1012.54
2018-09-22T07:10:53.962Z,1012.53
2018-09-22T07:11:53.957Z,1012.53
2018-09-22T07:12:53.962Z,1012.59
2018-09-22T07:13:53.963Z,1012.63
2018-09-22T07:14:53.949Z,1012.67
2018-09-22T07:15:53.950Z,1012.57
2018-09-22T07:16:53.945Z,1012.62
2018-09-22T07:17:53.944Z,1012.62
2018-09-22T07:18:53.944Z,1012.63
2018-09-22T07:19:53.938Z,1012.68
2018-09-22T07:20:53.936Z,1012.65
2018-09-22T07:21:53.938Z,1012.59
2018-09-22T07:22:53.934Z,1012.64
2018-09-22T07:23:53.929Z,1012.68
2018-09-22T07:24:53.926Z,1012.67
2018-09-22T07:25:53.924Z,1012.66
2018-09-22T07:26:53.923Z,1012.68
2018-09-22T07:27:53.920Z,1012.65
2018-09-22T07:28:53.916Z,1012.68
2018-09-22T07:29:53.913Z,1012.66
2018-09-22T07:30:53.934Z,1012.64
2018-09-22T07:31:53.912Z,1012.70
2018-09-22T07:32:53.907Z,1012.65
2018-09-22T07:33:53.907Z,1012.65
2018-09-22T07:34:53.908Z,1012.76
2018-09-22T07:35:53.902Z,1012.71
2018-09-22T07:36:53.899Z,1012.78
2018-09-22T07:37:53.901Z,1012.80
2018-09-22T07:38:53.896Z,1012.81
2018-09-22T07:39:53.893Z,1012.81
2018-09-22T07:40:53.891Z,1012.80
2018-09-22T07:41:53.894Z,1012.83
2018-09-22T07:42:53.890Z,1012.87
2018-09-22T07:43:53.884Z,1012.86
2018-09-22T07:44:53.884Z,1012.87
2018-09-22T07:45:53.947Z,1012.91
2018-09-22T07:46:53.877Z,1012.95
2018-09-22T07:47:53.875Z,1013.00
2018-09-22T07:48:53.872Z,1012.97
2018-09-22T07:49:53.872Z,1012.99
2018-09-22T07:50:53.870Z,1013.00
2018-09-22T07:51:53.871Z,1013.06
2018-09-22T07:52:53.864Z,1013.09
2018-09-22T07:53:53.862Z,1013.06
2018-09-22T07:54:53.862Z,1013.11
2018-09-22T07:55:53.862Z,1013.11
2018-09-22T07:56:53.857Z,1013.09
2018-09-22T07:57:53.855Z,1013.12
2018-09-22T07:58:53.853Z,1013.08
2018-09-22T07:59:53.851Z,1013.12
2018-09-22T08:00:53.852Z,1013.11
2018-09-22T08:01:53.847Z,1013.12
2018-09-22T08:02:53.845Z,1013.13
2018-09-22T08:03:53.845Z,1013.14
2018-09-22T08:04:53.841Z,1013.19
2018-09-22T08:05:53.838Z,1013.16
2018-09-22T08:06:53.839Z,1013.21
2018-09-22T08:07:53.834Z,1013.23
2018-09-22T08:08:53.835Z,1013.22
2018-09-22T08:09:53.827Z,1013.26
2018-09-22T08:10:53.887Z,1013.19
2018-09-22T08:11:53.830Z,1013.26
2018-09-22T08:12:53.824Z,1013.25
2018-09-22T08:13:53.820Z,1013.28
2018-09-22T08:14:53.820Z,1013.27
2018-09-22T08:15:53.846Z,1013.30
2018-09-22T08:16:53.820Z,1013.23
2018-09-22T08:17:53.814Z,1013.32
2018-09-22T08:18:53.812Z,1013.24
2018-09-22T08:19:53.813Z,1013.26
2018-09-22T08:20:53.809Z,1013.28
2018-09-22T08:21:53.810Z,1013.32
2018-09-22T08:22:53.805Z,1013.28
2018-09-22T08:23:53.803Z,1013.33
2018-09-22T08:24:53.800Z,1013.29
2018-09-22T08:25:53.800Z,1013.35
2018-09-22T08:26:53.799Z,1013.32
2018-09-22T08:27:53.797Z,1013.33
2018-09-22T08:28:53.798Z,1013.35
2018-09-22T08:29:53.792Z,1013.35
2018-09-22T08:30:53.789Z,1013.31
2018-09-22T08:31:54.526Z,1013.33
2018-09-22T08:32:54.528Z,1013.37
2018-09-22T08:33:53.786Z,1013.40
2018-09-22T08:34:53.787Z,1013.38
2018-09-22T08:35:53.834Z,1013.39
2018-09-22T08:36:54.647Z,1013.41
2018-09-22T08:37:53.778Z,1013.37
2018-09-22T08:38:53.780Z,1013.42
2018-09-22T08:39:53.776Z,1013.40
2018-09-22T08:40:53.774Z,1013.35
2018-09-22T08:41:53.770Z,1013.31
2018-09-22T08:42:53.771Z,1013.33
2018-09-22T08:43:53.794Z,1013.32
2018-09-22T08:44:53.771Z,1013.36
2018-09-22T08:45:53.773Z,1013.40
2018-09-22T08:46:53.763Z,1013.32
2018-09-22T08:47:53.763Z,1013.40
2018-09-22T08:48:53.762Z,1013.38
2018-09-22T08:49:53.826Z,1013.33
2018-09-22T08:50:53.758Z,1013.37
2018-09-22T08:51:53.760Z,1013.34
2018-09-22T08:52:53.754Z,1013.36
2018-09-22T08:53:53.757Z,1013.30
2018-09-22T08:54:53.751Z,1013.39
2018-09-22T08:55:53.751Z,1013.32
2018-09-22T08:56:53.750Z,1013.42
2018-09-22T08:57:53.786Z,1013.37
2018-09-22T08:58:53.747Z,1013.32
2018-09-22T08:59:53.748Z,1013.28
2018-09-22T09:00:53.750Z,1013.34
2018-09-22T09:01:53.741Z,1013.40
2018-09-22T09:02:53.805Z,1013.38
2018-09-22T09:03:53.768Z,1013.35
2018-09-22T09:04:53.761Z,1013.35
2018-09-22T09:05:53.910Z,1013.44
2018-09-22T09:06:53.756Z,1013.41
2018-09-22T09:07:53.774Z,1013.41
2018-09-22T09:08:53.736Z,1013.48
2018-09-22T09:09:53.735Z,1013.43
2018-09-22T09:10:53.733Z,1013.38
2018-09-22T09:11:53.731Z,1013.47
2018-09-22T09:12:53.731Z,1013.44
2018-09-22T09:13:53.728Z,1013.48
2018-09-22T09:14:53.724Z,1013.51
2018-09-22T09:15:53.731Z,1013.45
2018-09-22T09:16:53.775Z,1013.52
2018-09-22T09:17:53.728Z,1013.51
2018-09-22T09:18:53.721Z,1013.47
2018-09-22T09:19:53.724Z,1013.45
2018-09-22T09:20:53.730Z,1013.51
2018-09-22T09:21:53.719Z,1013.44
2018-09-22T09:22:53.719Z,1013.51
2018-09-22T09:23:53.717Z,1013.51
2018-09-22T09:24:53.714Z,1013.53
2018-09-22T09:25:53.713Z,1013.47
2018-09-22T09:26:53.713Z,1013.46
2018-09-22T09:27:53.714Z,1013.46
2018-09-22T09:28:53.708Z,1013.46
2018-09-22T09:29:53.711Z,1013.50
2018-09-22T09:30:53.709Z,1013.51
2018-09-22T09:31:53.706Z,1013.51
2018-09-22T09:32:53.710Z,1013.53
2018-09-22T09:33:53.715Z,1013.53
2018-09-22T09:34:53.706Z,1013.49
2018-09-22T09:35:53.703Z,1013.48
2018-09-22T09:36:53.703Z,1013.53
2018-09-22T09:37:53.700Z,1013.52
2018-09-22T09:38:53.701Z,1013.53
2018-09-22T09:39:53.700Z,1013.54
2018-09-22T09:40:53.697Z,1013.54
2018-09-22T09:41:53.697Z,1013.54
2018-09-22T09:42:53.695Z,1013.52
2018-09-22T09:43:53.694Z,1013.60
2018-09-22T09:44:53.691Z,1013.56
2018-09-22T09:45:53.692Z,1013.59
2018-09-22T09:46:54.473Z,1013.54
2018-09-22T09:47:53.690Z,1013.54
2018-09-22T09:48:53.688Z,1013.55
2018-09-22T09:49:53.684Z,1013.57
2018-09-22T09:50:53.687Z,1013.53
2018-09-22T09:51:53.689Z,1013.52
2018-09-22T09:52:53.686Z,1013.47
2018-09-22T09:53:53.682Z,1013.50
2018-09-22T09:54:53.741Z,1013.56
2018-09-22T09:55:53.680Z,1013.54
2018-09-22T09:56:53.680Z,1013.51
2018-09-22T09:57:53.677Z,1013.51
2018-09-22T09:58:53.683Z,1013.46
2018-09-22T09:59:53.684Z,1013.49
2018-09-22T10:00:53.681Z,1013.43
2018-09-22T10:01:53.681Z,1013.40
2018-09-22T10:02:53.678Z,1013.41
2018-09-22T10:03:54.477Z,1013.43
2018-09-22T10:04:53.677Z,1013.45
2018-09-22T10:05:53.667Z,1013.41
2018-09-22T10:06:53.671Z,1013.38
2018-09-22T10:07:53.671Z,1013.42
2018-09-22T10:08:53.670Z,1013.40
2018-09-22T10:09:53.670Z,1013.39
2018-09-22T10:10:53.672Z,1013.46
2018-09-22T10:11:53.684Z,1013.36
2018-09-22T10:12:53.671Z,1013.43
2018-09-22T10:13:53.668Z,1013.46
2018-09-22T10:14:53.666Z,1013.39
2018-09-22T10:15:53.664Z,1013.42
2018-09-22T10:16:53.665Z,1013.39
2018-09-22T10:17:53.665Z,1013.38
2018-09-22T10:18:53.664Z,1013.40
2018-09-22T10:19:53.661Z,1013.35
2018-09-22T10:20:53.666Z,1013.43
2018-09-22T10:21:53.660Z,1013.45
2018-09-22T10:22:53.662Z,1013.42
2018-09-22T10:23:53.661Z,1013.49
2018-09-22T10:24:53.659Z,1013.45
2018-09-22T10:25:53.657Z,1013.42
2018-09-22T10:26:53.671Z,1013.38
2018-09-22T10:27:53.718Z,1013.40
2018-09-22T10:28:53.672Z,1013.42
2018-09-22T10:29:53.658Z,1013.41
2018-09-22T10:30:53.652Z,1013.43
2018-09-22T10:31:53.659Z,1013.33
2018-09-22T10:32:53.658Z,1013.39
2018-09-22T10:33:53.655Z,1013.38
2018-09-22T10:34:53.656Z,1013.36
2018-09-22T10:35:53.655Z,1013.39
2018-09-22T10:36:53.648Z,1013.32
2018-09-22T10:37:53.655Z,1013.30
2018-09-22T10:38:53.653Z,1013.22
2018-09-22T10:39:53.748Z,1013.29
2018-09-22T10:40:53.654Z,1013.33
2018-09-22T10:41:53.660Z,1013.30
2018-09-22T10:42:53.656Z,1013.28
2018-09-22T10:43:53.652Z,1013.29
2018-09-22T10:44:53.652Z,1013.31
2018-09-22T10:45:53.652Z,1013.33
2018-09-22T10:46:53.651Z,1013.30
2018-09-22T10:47:53.653Z,1013.35
2018-09-22T10:48:53.652Z,1013.34
2018-09-22T10:49:53.649Z,1013.36
2018-09-22T10:50:53.645Z,1013.42
2018-09-22T10:51:53.652Z,1013.42
2018-09-22T10:52:53.718Z,1013.41
2018-09-22T10:53:53.647Z,1013.49
2018-09-22T10:54:53.648Z,1013.41
2018-09-22T10:55:53.648Z,1013.43
2018-09-22T10:56:53.647Z,1013.45
2018-09-22T10:57:53.645Z,1013.45
2018-09-22T10:58:53.647Z,1013.36
2018-09-22T10:59:53.644Z,1013.35
2018-09-22T11:00:53.644Z,1013.37
2018-09-22T11:01:53.648Z,1013.36
2018-09-22T11:02:53.644Z,1013.39
2018-09-22T11:03:53.643Z,1013.34
2018-09-22T11:04:53.642Z,1013.29
2018-09-22T11:05:53.641Z,1013.24
2018-09-22T11:06:53.642Z,1013.30
2018-09-22T11:07:53.642Z,1013.30
2018-09-22T11:08:54.502Z,1013.35
2018-09-22T11:09:53.639Z,1013.30
2018-09-22T11:10:53.638Z,1013.37
2018-09-22T11:11:53.639Z,1013.22
2018-09-22T11:12:53.649Z,1013.32
2018-09-22T11:13:53.638Z,1013.35
2018-09-22T11:14:53.638Z,1013.35
2018-09-22T11:15:53.637Z,1013.27
2018-09-22T11:16:53.659Z,1013.26
2018-09-22T11:17:53.636Z,1013.27
2018-09-22T11:18:53.635Z,1013.24
2018-09-22T11:19:53.637Z,1013.18
2018-09-22T11:20:53.639Z,1013.19
2018-09-22T11:21:53.643Z,1013.22
2018-09-22T11:22:53.635Z,1013.18
2018-09-22T11:23:53.637Z,1013.17
2018-09-22T11:24:53.632Z,1013.21
2018-09-22T11:25:53.634Z,1013.21
2018-09-22T11:26:53.702Z,1013.20
2018-09-22T11:27:53.630Z,1013.17
2018-09-22T11:28:54.503Z,1013.06
2018-09-22T11:29:53.634Z,1013.11
2018-09-22T11:30:53.634Z,1013.05
2018-09-22T11:31:53.635Z,1013.10
2018-09-22T11:32:53.633Z,1013.06
2018-09-22T11:33:53.633Z,1013.13
2018-09-22T11:34:53.632Z,1013.17
2018-09-22T11:35:53.631Z,1013.06
2018-09-22T11:36:53.629Z,1013.10
2018-09-22T11:37:53.630Z,1013.07
2018-09-22T11:38:53.631Z,1013.06
2018-09-22T11:39:53.631Z,1013.04
2018-09-22T11:40:53.628Z,1013.03
2018-09-22T11:41:53.629Z,1013.05
2018-09-22T11:42:53.631Z,1013.09
2018-09-22T11:43:54.589Z,1013.12
2018-09-22T11:44:53.627Z,1013.09
2018-09-22T11:45:53.628Z,1013.08
2018-09-22T11:46:53.625Z,1013.12
2018-09-22T11:47:53.628Z,1013.00
2018-09-22T11:48:53.624Z,1013.01
2018-09-22T11:49:53.627Z,1012.99
2018-09-22T11:50:53.625Z,1012.99
2018-09-22T11:51:53.629Z,1012.99
2018-09-22T11:52:53.624Z,1012.98
2018-09-22T11:53:53.624Z,1012.99
2018-09-22T11:54:53.623Z,1013.01
2018-09-22T11:55:53.624Z,1012.94
2018-09-22T11:56:53.624Z,1013.02
2018-09-22T11:57:53.623Z,1012.99
2018-09-22T11:58:53.625Z,1012.98
2018-09-22T11:59:53.624Z,1012.99
2018-09-22T12:00:53.625Z,1013.00
2018-09-22T12:01:53.667Z,1013.02
2018-09-22T12:02:53.629Z,1012.95
2018-09-22T12:03:53.621Z,1013.00
2018-09-22T12:04:53.623Z,1013.03
2018-09-22T12:05:53.662Z,1012.96